Arco, Idaho
Current Conditions -  °F | °C
As of 11:55 PM on Wednesday 22 Oct 2014 (Local Time) from KSUN Reporting Station
Overcast Overcast  
Wind Chill: 41°   Ceiling: 7000
Heat Index: 45°   Visibility: 10mi
Dew Point: 32°   Wind: 6mph
Humidity: 61%   Direction: 320°NW
Pressure: 30.16"   Gusts: NA
Location:  43.64°N, 113.3°W
Report Text: KSUN 230555Z AUTO 32005KT 10SM BKN070 BKN080 OVC100 07/00 A3016 RMK AO2
Loading
Personal Weather Stations






























Interactive Weather Map
Tropical Storm Tracking
New forecast layout! Learn more

10-Day Weather Forecast

Advertisements
Track Severe Weather on mobile